Aeroporto :
LOGIN :

Iscrizione | Disclaimer

   EN    FR    IT 

 










Sommario :    VFR   VFR Marginale   IFR   IFR Intensivo   IFR Molto Intensivo
Visibilità : 
Base nubi : 
>= 8 km
>= 3000ft
5 / 8 km
1000 / 3000 ft
1500m / 5 km
500 / 1000 ft
800 / 1500m
200 / 500 ft
< 800m
< 200 ft
Simboli :   Temporali  Nebbia  Neve Forte  Precipitazioni Forti  Vento > 20 kt
SIGMETs :   Varie  Temporali  Ghiacco  Turbolenza  Onda orograficha  Ceneri Vulcaniche






- Altitudine del aeroporto : 129 ft
- Codice IATA : ZCN


ETHC - Celle

ULTIMO METAR :
  • 021420Z 23011KT 9999 FEW032 BKN100 23/11 Q1009 BLU BLU TEMPO BLU+

METARs OBSOLETI :
  • 021320Z 23012KT 9999 FEW032 BKN100 23/12 Q1009 BLU BLU TEMPO BLU+
  • 021220Z 23010KT 9999 FEW032 BKN100 22/13 Q1009 BLU BLU TEMPO BLU+

TAF TAF ETHC
Valido dal 02 a 14 ore il 02 a 23 ore UTC


021319Z 0214/0223 25010KT 9999 NSW SCT035 BKN090
PROB30 0218/0223 26012G22KT 3000 TSRA FEW010 BKN030CB



MetMap, La meteo Aeronautica in un colpo d'occhio ! - Copyright ORBIFLY Dicembre 2007 - Disclaimer

ORBIFLY MET'MAP TEAM :

Programmazione e sviluppo : Alexandra Zaïnal
Concezione : Baudouin d'Aumeries
Aiuto per la programmazione : Marc-Olivier Méhu
Supporto tecnico e logistico : Manuel Goepfert
Aiuto per la traduzione : Arnaldo La Scala

Contatto : metmap@orbifly.com




FONTI E CREDITI :

   NOAA